Time;durP1;ratioP1;P1;durP2;ratioP2;P2;SDS_P1;SDS_P2;PMS_P1;PMS_P2;Temp;Humidity;BMP_temperature;BMP_pressure;BME280_temperature;BME280_humidity;BME280_pressure;Samples;Min_cycle;Max_cycle;Signal;HPM_P1;HPM_P2
2022/07/29 00:00:46;;;;;;;8.02;7.10;;;20.40;99.90;;;;;;5052740;28;20176;-34
2022/07/29 00:03:13;;;;;;;6.97;6.28;;;20.40;99.90;;;;;;5051549;28;20185;-38
2022/07/29 00:05:40;;;;;;;7.80;7.03;;;20.30;99.90;;;;;;5051828;28;20203;-35
2022/07/29 00:08:07;;;;;;;7.47;6.70;;;20.30;99.90;;;;;;5050947;28;20212;-34
2022/07/29 00:10:32;;;;;;;7.53;6.82;;;20.30;99.90;;;;;;5052724;28;20232;-35
2022/07/29 00:12:58;;;;;;;7.10;6.45;;;20.20;99.90;;;;;;5070460;28;20204;-35
2022/07/29 00:15:24;;;;;;;7.07;6.38;;;20.10;99.90;;;;;;5052218;28;20224;-37
2022/07/29 00:17:50;;;;;;;8.27;7.45;;;20.10;99.90;;;;;;5068992;28;20216;-37
2022/07/29 00:20:16;;;;;;;6.95;6.20;;;20.00;99.90;;;;;;5068715;28;20242;-35
2022/07/29 00:22:42;;;;;;;7.93;6.05;;;20.00;99.90;;;;;;5052352;28;20205;-34
2022/07/29 00:25:08;;;;;;;8.18;7.32;;;20.00;99.90;;;;;;5069055;28;20231;-36
2022/07/29 00:27:35;;;;;;;8.98;6.72;;;20.00;99.90;;;;;;5052442;28;20212;-36
2022/07/29 00:30:02;;;;;;;7.82;6.93;;;19.90;99.90;;;;;;5069105;28;20200;-37
2022/07/29 00:32:28;;;;;;;8.52;7.70;;;19.90;99.90;;;;;;5052153;28;20204;-34
2022/07/29 00:37:38;;;;;;;8.80;7.72;;;19.80;99.90;;;;;;5070857;28;20234;-36
2022/07/29 00:40:04;;;;;;;8.27;7.40;;;19.90;99.90;;;;;;5073069;28;20212;-36
2022/07/29 00:42:30;;;;;;;8.50;7.75;;;19.90;99.90;;;;;;5056123;28;20250;-34
2022/07/29 00:44:55;;;;;;;9.52;7.70;;;19.80;99.90;;;;;;5055914;28;20244;-35
2022/07/29 00:47:21;;;;;;;7.30;6.60;;;19.70;99.90;;;;;;5056494;28;20195;-34
2022/07/29 00:49:47;;;;;;;8.20;7.40;;;19.70;99.90;;;;;;5072400;28;20279;-35
2022/07/29 00:52:13;;;;;;;7.80;7.03;;;19.70;99.90;;;;;;5072629;28;20192;-38
2022/07/29 00:54:40;;;;;;;9.35;7.65;;;19.70;99.90;;;;;;5053188;28;20201;-34
2022/07/29 00:57:07;;;;;;;12.23;8.10;;;19.70;99.90;;;;;;5036736;28;20228;-38
2022/07/29 00:59:34;;;;;;;7.63;6.93;;;19.60;99.90;;;;;;5066781;28;20228;-36
2022/07/29 01:02:00;;;;;;;7.03;6.35;;;19.60;99.90;;;;;;5055962;28;20177;-34
2022/07/29 01:04:26;;;;;;;8.55;7.65;;;19.50;99.90;;;;;;5073767;28;20201;-34
2022/07/29 01:06:53;;;;;;;8.75;7.85;;;19.50;99.90;;;;;;5072280;28;20264;-36
2022/07/29 01:09:20;;;;;;;7.95;7.15;;;19.50;99.90;;;;;;5089728;28;20211;-34
2022/07/29 01:11:50;;;;;;;8.10;6.60;;;19.60;99.90;;;;;;5055381;28;20243;-34
2022/07/29 01:14:16;;;;;;;7.38;6.57;;;19.60;99.90;;;;;;5056475;28;20204;-37
2022/07/29 01:17:05;;;;;;;8.20;7.47;;;19.50;99.90;;;;;;5055196;28;20556;-35
2022/07/29 01:19:36;;;;;;;8.40;7.65;;;19.50;99.90;;;;;;5073080;28;20248;-38
2022/07/29 01:22:16;;;;;;;9.77;7.75;;;19.40;99.90;;;;;;5047418;28;20242;-35
2022/07/29 01:24:52;;;;;;;6.22;5.63;;;19.40;99.90;;;;;;5055316;28;20208;-36
2022/07/29 01:28:05;;;;;;;7.78;7.07;;;19.30;99.90;;;;;;5088804;28;20181;-35
2022/07/29 01:30:34;;;;;;;8.10;7.28;;;19.20;99.90;;;;;;5043724;28;20209;-36
2022/07/29 01:33:04;;;;;;;8.38;7.57;;;19.20;99.90;;;;;;5073253;28;20177;-35
2022/07/29 01:35:40;;;;;;;7.72;6.95;;;19.20;99.90;;;;;;5055140;28;20201;-33
2022/07/29 01:38:12;;;;;;;7.55;6.85;;;19.20;99.90;;;;;;5055732;28;20180;-34
2022/07/29 01:40:47;;;;;;;7.78;7.18;;;19.20;99.90;;;;;;5055269;28;20189;-34
2022/07/29 01:43:19;;;;;;;7.75;6.50;;;19.20;99.90;;;;;;5055211;28;20191;-34
2022/07/29 01:46:01;;;;;;;7.22;6.63;;;19.30;99.90;;;;;;5054691;28;20342;-39
2022/07/29 01:48:31;;;;;;;7.80;7.10;;;19.20;99.90;;;;;;5072648;28;20212;-34
2022/07/29 01:51:19;;;;;;;7.47;6.88;;;19.10;99.90;;;;;;5054833;28;20213;-37
2022/07/29 01:53:58;;;;;;;8.25;7.47;;;19.00;99.90;;;;;;5071730;28;20192;-34
2022/07/29 01:56:29;;;;;;;7.40;6.55;;;18.80;99.90;;;;;;5055228;28;20260;-34
2022/07/29 01:58:57;;;;;;;8.52;7.35;;;18.80;99.90;;;;;;5073661;28;20186;-35
2022/07/29 02:01:25;;;;;;;8.55;7.72;;;18.80;99.90;;;;;;5054453;28;20199;-37
2022/07/29 02:03:54;;;;;;;8.32;7.53;;;18.60;99.90;;;;;;5088537;28;20220;-34
2022/07/29 02:06:22;;;;;;;8.40;7.70;;;18.60;99.90;;;;;;5054058;28;20185;-37
2022/07/29 02:08:48;;;;;;;7.50;6.80;;;18.60;99.90;;;;;;5071856;28;20729;-34
2022/07/29 02:11:15;;;;;;;7.70;7.07;;;18.60;99.90;;;;;;5054491;28;20212;-37
2022/07/29 02:13:42;;;;;;;7.45;6.75;;;18.60;99.90;;;;;;5054919;28;20200;-34
2022/07/29 02:16:09;;;;;;;8.00;7.20;;;18.60;99.90;;;;;;5088402;28;20181;-36
2022/07/29 02:18:38;;;;;;;8.02;7.32;;;18.60;99.90;;;;;;5072238;28;20196;-38
2022/07/29 02:21:05;;;;;;;9.32;7.80;;;18.60;99.90;;;;;;5072643;28;20311;-35
2022/07/29 02:23:32;;;;;;;7.35;6.53;;;18.60;99.90;;;;;;5071340;28;20181;-35
2022/07/29 02:25:59;;;;;;;7.80;6.93;;;18.60;99.90;;;;;;5054484;28;20189;-34
2022/07/29 02:28:30;;;;;;;7.90;7.20;;;18.60;99.90;;;;;;5054883;28;20188;-38
2022/07/29 02:31:00;;;;;;;8.63;7.68;;;18.50;99.90;;;;;;5070904;28;20201;-34
2022/07/29 02:33:27;;;;;;;7.80;7.10;;;18.50;99.90;;;;;;5054299;28;20181;-37
2022/07/29 02:35:54;;;;;;;8.30;7.50;;;18.40;99.90;;;;;;5071309;28;20184;-38
2022/07/29 02:41:37;;;;;;;7.78;7.18;;;18.40;99.90;;;;;;5055623;28;20192;-35
2022/07/29 02:44:11;;;;;;;8.18;7.40;;;18.40;99.90;;;;;;5052665;28;20213;-34
2022/07/29 02:46:45;;;;;;;7.67;6.97;;;18.40;99.90;;;;;;5072234;28;20171;-35
2022/07/29 02:49:37;;;;;;;9.30;7.47;;;18.30;99.90;;;;;;5053835;28;20185;-36
2022/07/29 02:52:24;;;;;;;7.72;7.07;;;18.40;99.90;;;;;;5053723;28;20262;-35
2022/07/29 02:55:01;;;;;;;8.63;7.47;;;18.50;99.90;;;;;;5070540;28;20189;-34
2022/07/29 02:57:45;;;;;;;7.95;7.25;;;18.50;99.90;;;;;;5053862;28;20205;-36
2022/07/29 03:00:12;;;;;;;7.78;6.97;;;18.50;99.90;;;;;;5069068;28;20184;-36
2022/07/29 03:02:42;;;;;;;7.90;7.20;;;18.50;99.90;;;;;;5070350;28;20244;-37
2022/07/29 03:05:13;;;;;;;7.38;6.78;;;18.50;99.90;;;;;;5054255;28;20215;-38
2022/07/29 03:07:41;;;;;;;7.45;6.85;;;18.50;99.90;;;;;;5071448;28;20716;-39
2022/07/29 03:10:08;;;;;;;8.13;7.30;;;18.50;99.90;;;;;;5053185;28;20196;-34
2022/07/29 03:12:35;;;;;;;7.88;7.10;;;18.50;99.90;;;;;;5054085;28;20234;-35
2022/07/29 03:15:02;;;;;;;9.15;6.93;;;18.50;99.90;;;;;;5053139;28;20201;-37
2022/07/29 03:17:29;;;;;;;7.03;6.18;;;18.50;99.90;;;;;;5069949;28;20177;-34
2022/07/29 03:19:56;;;;;;;8.05;7.10;;;18.60;99.90;;;;;;5086964;28;20660;-34
2022/07/29 03:22:22;;;;;;;6.63;6.03;;;18.60;99.90;;;;;;5069889;28;20200;-35
2022/07/29 03:24:48;;;;;;;7.85;7.25;;;18.60;99.90;;;;;;5053032;28;20683;-34
2022/07/29 03:27:14;;;;;;;7.97;7.28;;;18.50;99.90;;;;;;5070013;28;20222;-35
2022/07/29 03:29:40;;;;;;;9.65;7.03;;;18.50;99.90;;;;;;5053100;28;20207;-37
2022/07/29 03:32:06;;;;;;;7.78;7.18;;;18.50;99.90;;;;;;5052971;28;20213;-34
2022/07/29 03:34:32;;;;;;;6.47;5.80;;;18.40;99.90;;;;;;5053304;28;20201;-34
2022/07/29 03:36:58;;;;;;;7.20;6.50;;;18.30;99.90;;;;;;5068902;28;20177;-35
2022/07/29 03:39:29;;;;;;;8.70;6.38;;;18.30;99.90;;;;;;5053342;28;20177;-35
2022/07/29 03:41:58;;;;;;;7.93;7.22;;;18.20;99.90;;;;;;5052186;28;20205;-34
2022/07/29 03:44:27;;;;;;;6.53;5.93;;;18.00;99.90;;;;;;5052108;28;20213;-36
2022/07/29 03:46:55;;;;;;;7.13;6.32;;;17.90;99.90;;;;;;5053117;28;20182;-36
2022/07/29 03:49:23;;;;;;;6.97;6.28;;;17.90;99.90;;;;;;5053199;28;20204;-34
2022/07/29 03:51:49;;;;;;;7.20;6.50;;;17.90;99.90;;;;;;5052414;28;20217;-35
2022/07/29 03:54:15;;;;;;;7.30;6.68;;;17.90;99.90;;;;;;5052843;28;20223;-37
2022/07/29 03:56:47;;;;;;;7.17;6.47;;;17.80;99.90;;;;;;5069142;28;20208;-35
2022/07/29 03:59:15;;;;;;;7.80;5.90;;;17.90;99.90;;;;;;5070464;28;20168;-37
2022/07/29 04:01:41;;;;;;;6.83;6.13;;;17.80;99.90;;;;;;5052520;28;20244;-38
2022/07/29 04:04:07;;;;;;;7.45;6.70;;;17.80;99.90;;;;;;5069807;28;20193;-37
2022/07/29 04:06:40;;;;;;;6.90;6.30;;;17.80;99.90;;;;;;5049526;28;20185;-35
2022/07/29 04:09:07;;;;;;;7.10;6.20;;;17.80;99.90;;;;;;5065220;28;20267;-37
2022/07/29 04:11:34;;;;;;;6.10;5.50;;;17.70;99.90;;;;;;5085235;28;20265;-35
2022/07/29 04:13:59;;;;;;;5.33;4.80;;;17.70;99.90;;;;;;5069355;28;20238;-36
2022/07/29 04:16:25;;;;;;;5.57;4.93;;;17.60;99.90;;;;;;5048823;28;20184;-34
2022/07/29 04:18:51;;;;;;;5.63;4.70;;;17.60;99.90;;;;;;5044872;28;20173;-37
2022/07/29 04:21:17;;;;;;;5.83;5.33;;;17.60;99.90;;;;;;5051835;28;20213;-34
2022/07/29 04:23:44;;;;;;;5.33;4.83;;;17.50;99.90;;;;;;5052282;28;20203;-35
2022/07/29 04:26:11;;;;;;;5.53;5.03;;;17.50;99.90;;;;;;5057669;28;20181;-34
2022/07/29 04:28:39;;;;;;;5.37;4.87;;;17.60;99.90;;;;;;5070493;28;20177;-37
2022/07/29 04:31:05;;;;;;;6.03;4.33;;;17.60;99.90;;;;;;5085698;28;20262;-37
2022/07/29 04:33:32;;;;;;;5.00;4.60;;;17.70;99.90;;;;;;5052704;28;20201;-34
2022/07/29 04:35:57;;;;;;;4.40;4.00;;;17.70;99.90;;;;;;5052153;28;20193;-35
2022/07/29 04:38:23;;;;;;;5.80;5.00;;;17.80;99.90;;;;;;5051773;28;20237;-34
2022/07/29 04:40:49;;;;;;;4.90;4.40;;;17.80;99.90;;;;;;5051666;28;20184;-35
2022/07/29 04:43:20;;;;;;;4.50;4.10;;;17.80;99.90;;;;;;5068038;28;20181;-34
2022/07/29 04:45:46;;;;;;;4.40;4.00;;;17.90;99.90;;;;;;5054636;28;20219;-36
2022/07/29 04:48:12;;;;;;;4.43;4.03;;;17.80;99.90;;;;;;5049314;28;20215;-35
2022/07/29 04:50:39;;;;;;;5.23;4.83;;;17.70;99.90;;;;;;5068267;28;20280;-37
2022/07/29 04:53:05;;;;;;;4.70;4.30;;;17.80;99.90;;;;;;5032303;28;20228;-35
2022/07/29 04:55:31;;;;;;;5.17;4.63;;;17.80;99.90;;;;;;5064284;28;20197;-35
2022/07/29 04:57:57;;;;;;;5.53;5.00;;;17.80;99.90;;;;;;5069127;28;20181;-37
2022/07/29 05:00:23;;;;;;;5.30;4.80;;;17.90;99.90;;;;;;5068514;28;20208;-34
2022/07/29 05:02:49;;;;;;;4.82;4.43;;;18.00;99.90;;;;;;5069049;28;20191;-38
2022/07/29 05:05:15;;;;;;;5.20;4.70;;;18.00;99.90;;;;;;5068464;28;20199;-35
2022/07/29 05:07:41;;;;;;;5.20;4.80;;;18.10;99.90;;;;;;5052543;28;20196;-35
2022/07/29 05:10:08;;;;;;;5.00;4.57;;;18.20;99.90;;;;;;5069340;28;20189;-36
2022/07/29 05:12:34;;;;;;;4.50;4.10;;;18.30;99.90;;;;;;5061206;28;20266;-41
2022/07/29 05:14:59;;;;;;;4.60;4.20;;;18.30;99.90;;;;;;5048432;28;20280;-39
2022/07/29 05:17:25;;;;;;;4.28;3.92;;;18.40;99.90;;;;;;5052168;28;20184;-35
2022/07/29 05:19:51;;;;;;;5.33;3.90;;;18.40;99.90;;;;;;5051832;28;20177;-34
2022/07/29 05:22:18;;;;;;;4.13;3.80;;;18.50;99.90;;;;;;5051201;28;20228;-38
2022/07/29 05:24:45;;;;;;;5.55;3.83;;;18.60;99.90;;;;;;5048878;28;20190;-35
2022/07/29 05:27:11;;;;;;;4.07;3.67;;;18.60;99.90;;;;;;5067445;28;20184;-39
2022/07/29 05:29:36;;;;;;;3.75;3.45;;;18.60;99.90;;;;;;5055824;28;20192;-37
2022/07/29 05:32:03;;;;;;;4.90;3.70;;;18.70;99.90;;;;;;5071580;28;20197;-40
2022/07/29 05:34:30;;;;;;;4.28;3.88;;;18.80;99.90;;;;;;5071957;28;20267;-34
2022/07/29 05:36:56;;;;;;;4.22;3.80;;;18.80;99.90;;;;;;5072512;28;20180;-37
2022/07/29 05:39:22;;;;;;;3.65;3.35;;;18.90;99.90;;;;;;5055244;28;20181;-34
2022/07/29 05:41:48;;;;;;;5.88;3.42;;;18.90;99.90;;;;;;5054505;28;20243;-37
2022/07/29 05:44:14;;;;;;;3.80;3.50;;;19.00;99.90;;;;;;5055128;28;20224;-35
2022/07/29 05:46:40;;;;;;;4.30;3.83;;;19.00;99.90;;;;;;5088947;28;20639;-37
2022/07/29 05:49:07;;;;;;;4.30;3.90;;;19.10;99.90;;;;;;5054980;28;20189;-37
2022/07/29 05:51:36;;;;;;;3.92;3.60;;;19.20;99.90;;;;;;5054694;28;20205;-37
2022/07/29 05:54:02;;;;;;;6.97;4.10;;;19.20;99.90;;;;;;5070929;28;20224;-37
2022/07/29 05:56:28;;;;;;;5.05;3.85;;;19.20;99.90;;;;;;5062744;28;20219;-34
2022/07/29 05:58:54;;;;;;;4.63;3.90;;;19.20;99.90;;;;;;5062116;28;20177;-34
2022/07/29 06:01:20;;;;;;;4.28;3.90;;;19.20;99.90;;;;;;5062530;28;20188;-35
2022/07/29 06:03:47;;;;;;;4.55;4.13;;;19.20;99.90;;;;;;5064293;28;20205;-37
2022/07/29 06:06:13;;;;;;;5.32;4.40;;;19.20;99.90;;;;;;5059371;28;20182;-37
2022/07/29 06:08:40;;;;;;;5.10;4.30;;;19.20;99.90;;;;;;5066151;28;20180;-38
2022/07/29 06:11:05;;;;;;;5.20;4.80;;;19.30;99.90;;;;;;5070739;28;20204;-35
2022/07/29 06:13:32;;;;;;;5.10;4.55;;;19.30;99.90;;;;;;5054568;28;20185;-38
2022/07/29 06:15:57;;;;;;;5.20;4.50;;;19.40;99.90;;;;;;5054744;28;20178;-35
2022/07/29 06:18:23;;;;;;;4.00;3.70;;;19.50;99.90;;;;;;5054293;28;20176;-35
2022/07/29 06:20:53;;;;;;;4.80;4.40;;;19.40;99.90;;;;;;5048786;28;20681;-36
2022/07/29 06:23:20;;;;;;;4.57;4.18;;;19.50;99.90;;;;;;5059522;28;20181;-34
2022/07/29 06:25:47;;;;;;;5.88;4.25;;;19.50;99.90;;;;;;5063095;28;20235;-35
2022/07/29 06:28:13;;;;;;;5.25;4.20;;;19.70;99.90;;;;;;5061798;28;20203;-36
2022/07/29 06:30:40;;;;;;;4.25;3.90;;;19.70;99.90;;;;;;5059595;28;20198;-38
2022/07/29 06:33:05;;;;;;;4.60;4.20;;;19.80;99.90;;;;;;5049613;28;20276;-37
2022/07/29 06:35:35;;;;;;;4.22;3.83;;;20.00;99.90;;;;;;5045430;28;20288;-37
2022/07/29 06:38:04;;;;;;;4.97;4.43;;;20.20;99.90;;;;;;5059475;28;20192;-37
2022/07/29 06:43:14;;;;;;;6.28;4.22;;;20.50;99.90;;;;;;5057701;28;20213;-35
2022/07/29 06:45:43;;;;;;;4.10;3.70;;;20.70;99.90;;;;;;5031890;28;20312;-36
2022/07/29 06:48:10;;;;;;;5.18;4.20;;;20.80;99.90;;;;;;5056823;28;20191;-37
2022/07/29 06:50:39;;;;;;;4.65;3.95;;;20.90;99.90;;;;;;5054966;28;20206;-36
2022/07/29 06:53:08;;;;;;;5.60;4.07;;;20.90;99.90;;;;;;5055034;28;20185;-37
2022/07/29 06:55:36;;;;;;;5.50;3.92;;;20.90;99.90;;;;;;5046703;28;20251;-36
2022/07/29 06:58:02;;;;;;;5.10;3.95;;;21.00;99.90;;;;;;5058854;28;20189;-37
2022/07/29 07:00:28;;;;;;;4.03;3.63;;;21.10;99.90;;;;;;5045255;28;20442;-35
2022/07/29 07:02:54;;;;;;;6.20;4.00;;;21.20;99.90;;;;;;5048762;28;20208;-34
2022/07/29 07:05:38;;;;;;;6.22;3.60;;;21.20;99.90;;;;;;5062991;28;20295;-38
2022/07/29 07:08:11;;;;;;;3.70;3.40;;;21.30;99.90;;;;;;5062245;28;20182;-36
2022/07/29 07:10:47;;;;;;;6.75;3.75;;;21.20;99.90;;;;;;5048250;28;20212;-36
2022/07/29 07:13:12;;;;;;;4.95;3.20;;;21.30;99.90;;;;;;5058345;28;20594;-36
2022/07/29 07:15:39;;;;;;;4.68;3.75;;;21.30;99.90;;;;;;5045715;28;20220;-37
2022/07/29 07:18:05;;;;;;;4.28;3.67;;;21.30;99.90;;;;;;5063098;28;20227;-35
2022/07/29 07:20:35;;;;;;;3.72;3.42;;;21.20;99.90;;;;;;5050098;28;20269;-35
2022/07/29 07:23:19;;;;;;;4.45;3.50;;;21.30;99.90;;;;;;5047550;28;20197;-35
2022/07/29 07:25:45;;;;;;;5.25;3.75;;;21.30;99.90;;;;;;5080950;28;20278;-35
2022/07/29 07:28:11;;;;;;;4.25;3.88;;;21.50;99.90;;;;;;5064232;28;20182;-36
2022/07/29 07:30:38;;;;;;;4.50;3.97;;;21.60;99.90;;;;;;5049155;28;20208;-34
2022/07/29 07:33:04;;;;;;;3.53;3.22;;;21.70;99.90;;;;;;5063623;28;20177;-37
2022/07/29 07:35:31;;;;;;;4.93;4.18;;;21.80;99.90;;;;;;5045263;28;20197;-35
2022/07/29 07:37:57;;;;;;;5.78;4.38;;;21.80;99.90;;;;;;5080237;28;20192;-36
2022/07/29 07:40:23;;;;;;;4.35;4.05;;;21.90;99.90;;;;;;5047206;28;20181;-35
2022/07/29 07:42:49;;;;;;;4.40;3.97;;;22.00;99.90;;;;;;5045899;28;20227;-34
2022/07/29 07:45:15;;;;;;;4.00;3.70;;;22.20;99.90;;;;;;5058903;28;20217;-36
2022/07/29 07:47:41;;;;;;;5.57;3.97;;;22.40;99.90;;;;;;5061030;28;20181;-38
2022/07/29 07:50:10;;;;;;;5.47;4.72;;;22.50;99.90;;;;;;5062154;28;20194;-38
2022/07/29 07:52:57;;;;;;;5.65;3.95;;;22.70;99.90;;;;;;5045911;28;20177;-38
2022/07/29 07:55:23;;;;;;;4.88;3.80;;;22.80;99.90;;;;;;5046856;28;20201;-35
2022/07/29 07:57:49;;;;;;;5.75;4.38;;;22.80;99.90;;;;;;5069822;28;20236;-38
2022/07/29 08:00:17;;;;;;;5.60;4.13;;;22.90;99.90;;;;;;5065948;28;20178;-38
2022/07/29 08:02:42;;;;;;;4.60;4.10;;;23.10;99.90;;;;;;5069834;28;20204;-37
2022/07/29 08:05:09;;;;;;;4.28;3.97;;;23.20;99.90;;;;;;5071807;28;20197;-38
2022/07/29 08:07:35;;;;;;;5.65;4.18;;;23.30;99.90;;;;;;5053683;28;20177;-35
2022/07/29 08:10:01;;;;;;;5.80;4.60;;;23.30;99.90;;;;;;5057910;28;20186;-38
2022/07/29 08:12:27;;;;;;;4.22;3.80;;;23.50;99.90;;;;;;5070767;28;20205;-35
2022/07/29 08:14:53;;;;;;;4.78;4.30;;;23.70;99.90;;;;;;5059288;28;20254;-36
2022/07/29 08:17:20;;;;;;;4.95;4.30;;;23.90;99.90;;;;;;5063224;28;20185;-37
2022/07/29 08:19:48;;;;;;;6.15;4.10;;;23.90;99.90;;;;;;5057913;28;20185;-35
2022/07/29 08:22:14;;;;;;;4.88;4.35;;;24.10;99.90;;;;;;5046988;28;20224;-36
2022/07/29 08:24:42;;;;;;;4.88;4.00;;;24.30;99.90;;;;;;5063828;28;20288;-35
2022/07/29 08:27:10;;;;;;;6.75;4.43;;;24.40;99.90;;;;;;5058080;28;20190;-35
2022/07/29 08:29:36;;;;;;;5.70;4.25;;;24.60;99.90;;;;;;5058934;28;20280;-37
2022/07/29 08:32:03;;;;;;;6.43;4.13;;;24.90;99.90;;;;;;5044984;28;20210;-35
2022/07/29 08:34:29;;;;;;;4.65;4.18;;;24.90;99.90;;;;;;5043111;28;20201;-35
2022/07/29 08:36:57;;;;;;;5.95;4.18;;;24.90;99.90;;;;;;5063652;28;20264;-37
2022/07/29 08:39:24;;;;;;;5.47;4.47;;;25.00;99.90;;;;;;5054958;28;20184;-36
2022/07/29 08:41:51;;;;;;;5.22;4.18;;;25.20;99.90;;;;;;5061651;28;20177;-35
2022/07/29 08:44:21;;;;;;;4.60;3.90;;;25.30;99.90;;;;;;5057014;28;20236;-37
2022/07/29 08:46:49;;;;;;;5.53;4.20;;;25.30;99.90;;;;;;5058273;28;20205;-35
2022/07/29 08:49:15;;;;;;;4.55;4.20;;;25.40;99.90;;;;;;5058195;28;20294;-35
2022/07/29 08:51:42;;;;;;;9.88;4.80;;;25.50;99.90;;;;;;5061046;28;20285;-38
2022/07/29 08:54:16;;;;;;;5.15;3.95;;;25.40;99.90;;;;;;5040818;28;20220;-35
2022/07/29 08:56:42;;;;;;;5.18;4.05;;;25.50;99.90;;;;;;5054056;28;20226;-39
2022/07/29 08:59:10;;;;;;;4.20;3.90;;;25.70;99.90;;;;;;5045887;28;20174;-38
2022/07/29 09:01:39;;;;;;;6.13;4.28;;;25.70;99.90;;;;;;5038718;28;20174;-37
2022/07/29 09:04:10;;;;;;;5.18;4.13;;;25.70;99.90;;;;;;5059958;28;20257;-38
2022/07/29 09:06:40;;;;;;;7.40;4.47;;;25.90;99.90;;;;;;5085948;28;20178;-35
2022/07/29 09:09:07;;;;;;;4.40;3.45;;;25.90;99.90;;;;;;5062608;28;20181;-35
2022/07/29 09:11:33;;;;;;;4.05;3.70;;;26.20;99.90;;;;;;5038042;28;20258;-37
2022/07/29 09:13:59;;;;;;;5.88;3.90;;;26.40;99.90;;;;;;5061659;28;20209;-37
2022/07/29 09:16:25;;;;;;;5.63;4.50;;;26.50;99.90;;;;;;5044556;28;20188;-37
2022/07/29 09:18:51;;;;;;;6.57;4.20;;;26.60;99.90;;;;;;5046771;28;20177;-39
2022/07/29 09:24:08;;;;;;;5.18;4.68;;;26.20;99.90;;;;;;5062326;28;20196;-37
2022/07/29 09:26:38;;;;;;;5.13;4.13;;;26.20;99.90;;;;;;5050514;28;20552;-37
2022/07/29 09:29:15;;;;;;;6.85;4.75;;;26.20;99.90;;;;;;5044687;28;20182;-35
2022/07/29 09:31:46;;;;;;;4.65;4.18;;;26.20;99.90;;;;;;5051341;28;20240;-35
2022/07/29 09:34:14;;;;;;;4.95;4.43;;;26.20;99.90;;;;;;5054959;28;20189;-37
2022/07/29 09:36:47;;;;;;;6.38;4.65;;;26.20;99.90;;;;;;5041781;28;20208;-35
2022/07/29 09:39:14;;;;;;;4.45;4.05;;;26.30;99.90;;;;;;5059326;28;20173;-37
2022/07/29 09:41:55;;;;;;;7.22;4.10;;;26.40;99.90;;;;;;5085408;28;20185;-34
2022/07/29 09:44:22;;;;;;;4.32;3.92;;;26.50;99.90;;;;;;5058455;28;20204;-37
2022/07/29 09:46:59;;;;;;;5.03;4.20;;;26.70;99.90;;;;;;5068674;28;20177;-37
2022/07/29 09:49:26;;;;;;;5.40;4.05;;;26.70;99.90;;;;;;5068538;28;20266;-37
2022/07/29 09:52:07;;;;;;;4.22;3.90;;;26.90;99.90;;;;;;5052003;28;20684;-35
2022/07/29 09:54:39;;;;;;;4.60;4.13;;;27.00;99.90;;;;;;5044723;28;20205;-35
2022/07/29 09:57:08;;;;;;;5.30;4.03;;;27.20;99.90;;;;;;5079631;28;20177;-38
2022/07/29 09:59:34;;;;;;;4.07;3.63;;;27.20;99.90;;;;;;5063628;28;20169;-36
2022/07/29 10:02:00;;;;;;;4.55;4.10;;;27.50;99.90;;;;;;5059900;28;20177;-35
2022/07/29 10:04:40;;;;;;;7.53;3.90;;;27.60;99.90;;;;;;5060227;28;20205;-35
2022/07/29 10:07:06;;;;;;;5.03;3.88;;;27.70;99.90;;;;;;5059835;28;20189;-35
2022/07/29 10:09:33;;;;;;;4.00;3.67;;;28.00;99.90;;;;;;5045295;28;20765;-35
2022/07/29 10:12:07;;;;;;;3.85;3.47;;;28.30;99.90;;;;;;5071236;28;20198;-37
2022/07/29 10:14:34;;;;;;;4.45;4.10;;;28.60;99.90;;;;;;5048881;28;20267;-37
2022/07/29 10:17:01;;;;;;;5.70;3.95;;;28.80;99.90;;;;;;5057563;28;20177;-35
2022/07/29 10:19:31;;;;;;;4.13;3.72;;;28.80;99.90;;;;;;5052484;28;20241;-35
2022/07/29 10:22:03;;;;;;;4.57;4.13;;;28.80;99.90;;;;;;5068745;28;20181;-35
2022/07/29 10:24:31;;;;;;;6.22;3.88;;;28.70;99.90;;;;;;5050054;28;20213;-35
2022/07/29 10:27:00;;;;;;;6.55;3.83;;;28.60;99.90;;;;;;5064550;28;20192;-36
2022/07/29 10:29:26;;;;;;;5.25;4.03;;;28.70;99.90;;;;;;5046688;28;20190;-36
2022/07/29 10:32:04;;;;;;;4.50;3.60;;;28.50;99.90;;;;;;5060758;28;20197;-35
2022/07/29 10:34:46;;;;;;;4.45;3.78;;;28.30;99.90;;;;;;5064622;28;20207;-35
2022/07/29 10:37:24;;;;;;;4.25;3.95;;;28.40;99.90;;;;;;5054421;28;20310;-39
2022/07/29 10:41:26;;;;;;;3.72;3.42;;;28.40;99.90;;;;;;5067951;28;20203;-38
2022/07/29 10:42:58;;;;;;;5.43;4.13;;;28.60;99.90;;;;;;5069639;28;20185;-35
2022/07/29 10:45:25;;;;;;;3.85;3.55;;;28.30;99.90;;;;;;5054024;28;20237;-35
2022/07/29 10:48:04;;;;;;;4.32;3.90;;;28.10;99.90;;;;;;5054241;28;20185;-35
2022/07/29 10:50:54;;;;;;;4.60;3.55;;;28.20;99.90;;;;;;5077142;28;20227;-37
2022/07/29 10:53:24;;;;;;;4.95;3.47;;;28.20;99.90;;;;;;5065722;28;20178;-35
2022/07/29 10:55:52;;;;;;;4.05;3.58;;;28.00;99.90;;;;;;5067072;28;20181;-36
2022/07/29 10:58:21;;;;;;;3.60;3.30;;;28.10;99.90;;;;;;5070715;28;20173;-36
2022/07/29 11:00:50;;;;;;;4.00;3.60;;;28.10;99.90;;;;;;5053275;28;20183;-36
2022/07/29 11:03:45;;;;;;;5.20;3.83;;;28.00;99.90;;;;;;5057540;28;20185;-37
2022/07/29 11:06:11;;;;;;;5.18;4.20;;;28.30;99.90;;;;;;5052944;28;20174;-36
2022/07/29 11:09:10;;;;;;;4.10;3.70;;;28.20;99.90;;;;;;5060116;28;20187;-38
2022/07/29 11:11:36;;;;;;;4.80;3.83;;;28.30;99.90;;;;;;5044118;28;20189;-36
2022/07/29 11:14:03;;;;;;;4.80;3.92;;;27.70;99.90;;;;;;5074881;28;20201;-35
2022/07/29 11:17:03;;;;;;;5.75;4.07;;;27.10;99.90;;;;;;5061277;28;20182;-37
2022/07/29 11:19:30;;;;;;;4.22;3.53;;;27.10;99.90;;;;;;5083611;28;20222;-37
2022/07/29 11:21:57;;;;;;;4.97;3.45;;;27.10;99.90;;;;;;5042787;28;20189;-38
2022/07/29 11:24:30;;;;;;;3.75;2.78;;;27.00;99.90;;;;;;5074353;28;20246;-36
2022/07/29 11:27:19;;;;;;;3.33;3.03;;;27.10;99.90;;;;;;5062818;28;20201;-37
2022/07/29 11:29:57;;;;;;;3.10;2.88;;;27.00;99.90;;;;;;5044496;28;20174;-37
2022/07/29 11:32:25;;;;;;;3.72;3.30;;;27.60;99.90;;;;;;5048879;28;20207;-36
2022/07/29 11:35:11;;;;;;;2.80;2.60;;;28.00;99.90;;;;;;5063047;28;20194;-36
2022/07/29 11:37:38;;;;;;;3.15;2.70;;;28.20;99.90;;;;;;5044238;28;20213;-36
2022/07/29 11:40:04;;;;;;;3.47;2.83;;;28.60;99.90;;;;;;5060513;28;20181;-35
2022/07/29 11:42:37;;;;;;;3.63;2.70;;;28.80;99.90;;;;;;5055476;28;20358;-38
2022/07/29 11:45:13;;;;;;;2.65;2.45;;;29.00;99.90;;;;;;5057947;28;20320;-34
2022/07/29 11:47:59;;;;;;;2.28;2.08;;;29.20;99.90;;;;;;5049426;28;20184;-34
2022/07/29 11:50:37;;;;;;;2.95;2.58;;;29.30;99.90;;;;;;5044691;28;20178;-35
2022/07/29 11:53:11;;;;;;;2.83;2.60;;;29.00;99.90;;;;;;5050801;28;20238;-33
2022/07/29 11:55:40;;;;;;;4.00;3.10;;;28.50;99.90;;;;;;5063291;28;20204;-33
2022/07/29 11:58:08;;;;;;;3.20;3.00;;;28.20;99.90;;;;;;5043423;28;20181;-33
2022/07/29 12:00:39;;;;;;;3.55;3.13;;;27.90;99.90;;;;;;5061436;28;20178;-34
2022/07/29 12:03:10;;;;;;;3.67;2.90;;;27.70;99.90;;;;;;5060027;28;20228;-35
2022/07/29 12:05:42;;;;;;;3.40;3.10;;;27.60;99.90;;;;;;5061770;28;20222;-35
2022/07/29 12:08:18;;;;;;;3.45;3.17;;;27.60;99.90;;;;;;5045602;28;20178;-33
2022/07/29 12:10:46;;;;;;;4.30;3.58;;;27.50;99.90;;;;;;5059742;28;20208;-35
2022/07/29 12:13:13;;;;;;;3.88;3.47;;;27.50;99.90;;;;;;5079159;28;20178;-33
2022/07/29 12:15:40;;;;;;;3.53;3.22;;;27.20;99.90;;;;;;5045292;28;20201;-35
2022/07/29 12:18:22;;;;;;;3.58;3.28;;;27.30;99.90;;;;;;5053786;28;20182;-35
2022/07/29 12:20:55;;;;;;;3.65;3.30;;;27.20;99.90;;;;;;5045941;28;20211;-33
2022/07/29 12:23:21;;;;;;;3.97;3.28;;;27.30;99.90;;;;;;5061441;28;20184;-35
2022/07/29 12:25:47;;;;;;;4.15;3.53;;;27.30;99.90;;;;;;5033876;28;20205;-35
2022/07/29 12:28:21;;;;;;;3.80;3.35;;;27.50;99.90;;;;;;5046032;28;20215;-33
2022/07/29 12:30:50;;;;;;;3.70;3.22;;;27.90;99.90;;;;;;5063674;28;20205;-33
2022/07/29 12:33:24;;;;;;;4.65;3.47;;;28.20;99.90;;;;;;5047986;28;20233;-33
2022/07/29 12:35:54;;;;;;;4.53;3.58;;;28.50;99.90;;;;;;5063600;28;20181;-33
2022/07/29 12:38:20;;;;;;;4.35;3.45;;;28.70;99.90;;;;;;5061505;28;20224;-34
2022/07/29 12:40:47;;;;;;;4.65;3.45;;;28.70;99.90;;;;;;5058699;28;20181;-38
2022/07/29 12:43:16;;;;;;;4.80;3.60;;;28.90;99.90;;;;;;5061893;28;20192;-35
2022/07/29 12:45:51;;;;;;;4.72;3.60;;;28.70;99.90;;;;;;5051183;28;20216;-35
2022/07/29 12:48:32;;;;;;;4.22;3.83;;;28.60;99.90;;;;;;5059566;28;20193;-33
2022/07/29 12:51:01;;;;;;;4.00;3.70;;;28.40;99.90;;;;;;5046360;28;20200;-34
2022/07/29 12:53:28;;;;;;;6.22;4.40;;;28.00;99.90;;;;;;5057885;28;20177;-35
2022/07/29 12:55:56;;;;;;;4.03;3.72;;;27.80;99.90;;;;;;5060829;28;20174;-33
2022/07/29 12:58:40;;;;;;;5.75;3.83;;;27.70;99.90;;;;;;5056088;28;20231;-33
2022/07/29 13:01:17;;;;;;;4.30;3.28;;;27.60;99.90;;;;;;5056672;28;20178;-33
2022/07/29 13:04:00;;;;;;;3.45;3.03;;;27.10;99.90;;;;;;5071148;22;20231;-86
2022/07/29 13:06:42;;;;;;;3.20;3.00;;;26.70;99.90;;;;;;4991624;28;20190;-86
2022/07/29 13:09:19;;;;;;;3.63;3.33;;;26.00;99.90;;;;;;4974786;28;20709;-86
2022/07/29 13:11:47;;;;;;;3.30;3.00;;;25.20;99.90;;;;;;4996656;28;20231;-86